createdAt,value
2023-03-16T00:01:41.722Z,95328.56
2023-03-16T00:04:49.863Z,95326.09
2023-03-16T00:07:58.163Z,95326.78
2023-03-16T00:11:07.690Z,95325.78
2023-03-16T00:14:15.770Z,95337.31
2023-03-16T00:17:23.803Z,95325.63
2023-03-16T00:20:33.516Z,95319.69
2023-03-16T00:23:42.530Z,95321.44
2023-03-16T00:26:54.728Z,95315.84
2023-03-16T00:30:03.617Z,95324.00
2023-03-16T00:33:12.469Z,95318.63
2023-03-16T00:36:22.680Z,95321.00
2023-03-16T00:39:35.528Z,95311.59
2023-03-16T00:42:44.977Z,95310.25
2023-03-16T00:45:59.062Z,95311.63
2023-03-16T00:49:09.410Z,95308.06
2023-03-16T00:52:18.012Z,95311.81
2023-03-16T00:55:27.043Z,95312.94
2023-03-16T00:58:39.237Z,95317.50
2023-03-16T01:01:47.815Z,95305.91
2023-03-16T01:04:55.893Z,95312.56
2023-03-16T01:08:04.296Z,95314.22
2023-03-16T01:11:16.515Z,95310.44
2023-03-16T01:14:26.909Z,95311.38
2023-03-16T01:17:35.447Z,95311.75
2023-03-16T01:20:50.449Z,95308.28
2023-03-16T01:23:58.927Z,95315.38
2023-03-16T01:27:07.828Z,95315.84
2023-03-16T01:30:17.929Z,95309.22
2023-03-16T01:33:29.076Z,95311.31
2023-03-16T01:36:37.389Z,95301.44
2023-03-16T01:39:49.439Z,95300.13
2023-03-16T01:43:04.441Z,95298.16
2023-03-16T01:46:23.531Z,95299.28
2023-03-16T01:49:38.966Z,95295.56
2023-03-16T01:52:47.070Z,95288.53
2023-03-16T01:55:55.701Z,95287.69
2023-03-16T01:59:12.083Z,95281.28
2023-03-16T02:02:26.304Z,95288.00
2023-03-16T02:05:44.020Z,95283.03
2023-03-16T02:08:58.793Z,95283.81
2023-03-16T02:12:18.481Z,95279.28
2023-03-16T02:15:31.758Z,95284.34
2023-03-16T02:18:41.541Z,95282.09
2023-03-16T02:22:02.144Z,95280.06
2023-03-16T02:25:13.990Z,95285.06
2023-03-16T02:28:31.963Z,95280.47
2023-03-16T02:31:41.662Z,95284.66
2023-03-16T02:34:49.938Z,95284.56
2023-03-16T02:37:58.080Z,95282.28
2023-03-16T02:41:15.445Z,95280.78
2023-03-16T02:44:29.664Z,95287.13
2023-03-16T02:47:45.694Z,95285.88
2023-03-16T02:50:55.768Z,95295.88
2023-03-16T02:54:04.938Z,95286.75
2023-03-16T02:57:15.758Z,95290.94
2023-03-16T03:00:24.954Z,95288.59
2023-03-16T03:03:35.052Z,95287.75
2023-03-16T03:06:43.227Z,95276.19
2023-03-16T03:09:53.592Z,95284.03
2023-03-16T03:13:02.308Z,95285.16
2023-03-16T03:16:11.616Z,95275.56
2023-03-16T03:19:21.285Z,95284.38
2023-03-16T03:22:29.986Z,95280.09
2023-03-16T03:25:38.104Z,95276.41
2023-03-16T03:28:47.277Z,95283.88
2023-03-16T03:31:55.436Z,95285.56
2023-03-16T03:35:06.107Z,95281.56
2023-03-16T03:38:14.240Z,95282.25
2023-03-16T03:41:26.075Z,95278.69
2023-03-16T03:44:35.609Z,95277.34
2023-03-16T03:47:45.466Z,95283.16
2023-03-16T03:51:01.161Z,95276.91
2023-03-16T03:54:38.659Z,95278.84
2023-03-16T03:57:50.881Z,95279.31
2023-03-16T04:00:59.198Z,95279.69
2023-03-16T04:04:07.431Z,95273.50
2023-03-16T04:07:17.142Z,95264.97
2023-03-16T04:10:29.373Z,95270.19
2023-03-16T04:13:37.819Z,95274.69
2023-03-16T04:16:46.459Z,95271.25
2023-03-16T04:19:55.436Z,95272.56
2023-03-16T04:23:05.333Z,95274.84
2023-03-16T04:26:16.871Z,95270.88
2023-03-16T04:29:28.141Z,95279.91
2023-03-16T04:32:40.181Z,95273.78
2023-03-16T04:35:48.478Z,95279.56
2023-03-16T04:38:59.861Z,95277.06
2023-03-16T04:42:08.553Z,95288.03
2023-03-16T04:45:18.763Z,95279.81
2023-03-16T04:48:29.276Z,95286.31
2023-03-16T04:51:40.539Z,95282.28
2023-03-16T04:54:52.637Z,95275.34
2023-03-16T04:58:01.476Z,95271.66
2023-03-16T05:01:14.623Z,95271.78
2023-03-16T05:04:24.584Z,95272.53
2023-03-16T05:07:33.287Z,95268.22
2023-03-16T05:10:44.651Z,95259.19
2023-03-16T05:13:53.347Z,95257.97
2023-03-16T05:17:03.932Z,95250.22
2023-03-16T05:20:16.481Z,95250.31
2023-03-16T05:23:30.875Z,95256.50
2023-03-16T05:26:44.622Z,95244.41
2023-03-16T05:29:56.465Z,95244.28
2023-03-16T05:33:05.976Z,95237.03
2023-03-16T05:36:15.060Z,95242.81
2023-03-16T05:39:26.478Z,95238.28
2023-03-16T05:42:36.000Z,95237.25
2023-03-16T05:45:44.521Z,95254.66
2023-03-16T05:48:55.934Z,95252.56
2023-03-16T05:52:05.183Z,95246.03
2023-03-16T05:55:18.971Z,95239.38
2023-03-16T05:58:34.676Z,95244.00
2023-03-16T06:01:46.924Z,95234.97
2023-03-16T06:04:55.670Z,95237.75
2023-03-16T06:08:05.751Z,95237.66
2023-03-16T06:11:16.398Z,95235.06
2023-03-16T06:14:28.271Z,95238.97
2023-03-16T06:17:37.961Z,95238.56
2023-03-16T06:20:47.773Z,95240.13
2023-03-16T06:23:56.500Z,95250.91
2023-03-16T06:27:05.231Z,95252.53
2023-03-16T06:30:25.102Z,95248.00
2023-03-16T06:33:33.923Z,95252.81
2023-03-16T06:36:42.240Z,95244.09
2023-03-16T06:39:54.321Z,95246.47
2023-03-16T06:43:02.688Z,95250.63
2023-03-16T06:46:12.909Z,95258.19
2023-03-16T06:49:21.786Z,95264.53
2023-03-16T06:52:32.064Z,95255.81
2023-03-16T06:55:41.714Z,95259.97
2023-03-16T06:58:52.084Z,95256.38
2023-03-16T07:02:02.358Z,95256.66
2023-03-16T07:05:14.131Z,95258.84
2023-03-16T07:08:22.751Z,95251.41
2023-03-16T07:11:32.495Z,95253.88
2023-03-16T07:14:42.581Z,95254.47
2023-03-16T07:17:57.661Z,95245.19
2023-03-16T07:21:08.274Z,95240.19
2023-03-16T07:24:17.406Z,95247.09
2023-03-16T07:27:27.409Z,95249.13
2023-03-16T07:30:35.577Z,95248.88
2023-03-16T07:33:45.127Z,95244.13
2023-03-16T07:36:59.479Z,95247.91
2023-03-16T07:40:13.943Z,95253.38
2023-03-16T07:43:22.580Z,95255.13
2023-03-16T07:46:32.725Z,95249.63
2023-03-16T07:49:42.619Z,95247.47
2023-03-16T07:52:51.385Z,95254.84
2023-03-16T07:55:59.979Z,95252.13
2023-03-16T07:59:08.382Z,95259.31
2023-03-16T08:02:21.558Z,95260.88
2023-03-16T08:05:33.205Z,95263.75
2023-03-16T08:08:45.206Z,95268.44
2023-03-16T08:12:01.970Z,95271.31
2023-03-16T08:15:11.765Z,95273.28
2023-03-16T08:18:21.421Z,95286.34
2023-03-16T08:21:31.279Z,95283.41
2023-03-16T08:24:39.983Z,95287.25
2023-03-16T08:27:51.189Z,95277.09
2023-03-16T08:30:59.439Z,95281.25
2023-03-16T08:34:24.571Z,95288.84
2023-03-16T08:37:34.232Z,95291.84
2023-03-16T08:40:47.621Z,95290.75
2023-03-16T08:43:57.799Z,95286.25
2023-03-16T08:47:12.213Z,95287.44
2023-03-16T08:50:23.482Z,95281.03
2023-03-16T08:53:33.464Z,95281.69
2023-03-16T08:56:41.859Z,95276.25
2023-03-16T08:59:51.113Z,95275.22
2023-03-16T09:03:00.744Z,95269.56
2023-03-16T09:06:17.514Z,95272.19
2023-03-16T09:09:27.445Z,95267.59
2023-03-16T09:12:38.477Z,95272.50
2023-03-16T09:15:46.982Z,95275.41
2023-03-16T09:18:55.882Z,95272.47
2023-03-16T09:22:04.154Z,95268.56
2023-03-16T09:25:14.443Z,95274.28
2023-03-16T09:28:22.666Z,95273.88
2023-03-16T09:31:31.196Z,95271.72
2023-03-16T09:34:39.671Z,95278.16
2023-03-16T09:38:04.742Z,95267.69
2023-03-16T09:41:40.265Z,95270.28
2023-03-16T09:45:06.484Z,95273.03
2023-03-16T09:48:18.909Z,95277.44
2023-03-16T09:51:39.529Z,95280.41
2023-03-16T09:54:58.081Z,95279.22
2023-03-16T09:58:17.776Z,95286.06
2023-03-16T10:01:44.776Z,95279.88
2023-03-16T10:05:08.206Z,95281.84
2023-03-16T10:08:24.515Z,95283.16
2023-03-16T10:11:38.418Z,95273.56
2023-03-16T10:14:55.177Z,95269.28
2023-03-16T10:18:13.476Z,95268.94
2023-03-16T10:21:25.208Z,95271.53
2023-03-16T10:24:49.526Z,95269.69
2023-03-16T10:27:57.752Z,95262.25
2023-03-16T10:31:08.112Z,95259.44
2023-03-16T10:34:16.990Z,95249.63
2023-03-16T10:37:28.302Z,95257.97
2023-03-16T10:40:40.216Z,95250.47
2023-03-16T10:43:52.520Z,95252.22
2023-03-16T10:47:05.454Z,95240.13
2023-03-16T10:50:16.807Z,95244.34
2023-03-16T10:53:30.534Z,95239.16
2023-03-16T10:56:38.623Z,95234.09
2023-03-16T10:59:50.778Z,95230.06
2023-03-16T11:03:02.514Z,95221.66
2023-03-16T11:06:22.889Z,95230.59
2023-03-16T11:09:35.535Z,95216.75
2023-03-16T11:12:49.128Z,95217.63
2023-03-16T11:16:02.744Z,95203.53
2023-03-16T11:19:22.334Z,95198.03
2023-03-16T11:22:31.745Z,95193.94
2023-03-16T11:25:47.767Z,95185.50
2023-03-16T11:29:08.870Z,95188.47
2023-03-16T11:32:24.815Z,95189.59
2023-03-16T11:35:58.393Z,95184.28
2023-03-16T11:39:24.814Z,95184.66
2023-03-16T11:42:40.103Z,95167.56
2023-03-16T11:46:03.084Z,95169.97
2023-03-16T11:49:42.859Z,95161.41
2023-03-16T11:53:05.041Z,95158.84
2023-03-16T11:56:29.789Z,95155.59
2023-03-16T12:00:18.291Z,95150.00
2023-03-16T12:04:10.244Z,95140.97
2023-03-16T12:07:39.580Z,95132.59
2023-03-16T12:10:56.325Z,95130.59
2023-03-16T12:14:18.256Z,95114.31
2023-03-16T12:17:31.415Z,95114.94
2023-03-16T12:20:53.453Z,95124.41
2023-03-16T12:24:07.055Z,95117.34
2023-03-16T12:27:23.973Z,95118.81
2023-03-16T12:30:46.084Z,95102.25
2023-03-16T12:34:16.564Z,95104.19
2023-03-16T12:37:38.487Z,95097.84
2023-03-16T12:40:54.877Z,95100.78
2023-03-16T12:44:16.073Z,95098.63
2023-03-16T12:47:33.651Z,95095.25
2023-03-16T12:50:51.952Z,95093.81
2023-03-16T12:54:00.629Z,95081.75
2023-03-16T12:57:16.329Z,95091.66
2023-03-16T13:00:35.897Z,95081.50
2023-03-16T13:03:48.073Z,95086.63
2023-03-16T13:07:07.731Z,95084.34
2023-03-16T13:10:20.698Z,95080.16
2023-03-16T13:13:29.096Z,95081.06
2023-03-16T13:16:39.844Z,95074.66
2023-03-16T13:20:08.958Z,95068.06
2023-03-16T13:23:24.438Z,95070.81
2023-03-16T13:26:43.273Z,95068.44
2023-03-16T13:29:57.931Z,95070.09
2023-03-16T13:33:20.651Z,95065.50
2023-03-16T13:36:31.875Z,95063.97
2023-03-16T13:39:40.640Z,95060.94
2023-03-16T13:42:52.904Z,95066.16
2023-03-16T13:46:01.176Z,95069.53
2023-03-16T13:49:13.300Z,95064.41
2023-03-16T13:52:29.479Z,95061.88
2023-03-16T13:55:40.284Z,95055.28
2023-03-16T13:58:52.697Z,95057.47
2023-03-16T14:02:02.864Z,95053.53
2023-03-16T14:05:19.988Z,95055.63
2023-03-16T14:08:29.805Z,95050.66
2023-03-16T14:11:38.678Z,95047.25
2023-03-16T14:14:51.032Z,95042.34
2023-03-16T14:18:14.647Z,95026.94
2023-03-16T14:21:30.794Z,95037.78
2023-03-16T14:24:40.583Z,95042.81
2023-03-16T14:27:49.343Z,95041.97
2023-03-16T14:31:07.649Z,95048.28
2023-03-16T14:34:29.891Z,95044.44
2023-03-16T14:37:41.132Z,95046.34
2023-03-16T14:40:56.192Z,95038.03
2023-03-16T14:44:04.904Z,95043.03
2023-03-16T14:47:27.973Z,95046.75
2023-03-16T14:50:37.173Z,95040.00
2023-03-16T14:53:46.636Z,95038.28
2023-03-16T14:57:00.661Z,95028.66
2023-03-16T15:00:12.605Z,95033.25
2023-03-16T15:03:24.630Z,95030.72
2023-03-16T15:06:34.320Z,95027.78
2023-03-16T15:09:44.385Z,95028.31
2023-03-16T15:12:54.860Z,95035.63
2023-03-16T15:16:04.511Z,95028.00
2023-03-16T15:19:12.665Z,95020.78
2023-03-16T15:22:28.480Z,95019.31
2023-03-16T15:25:41.301Z,95013.56
2023-03-16T15:28:49.490Z,95013.84
2023-03-16T15:31:57.708Z,95019.31
2023-03-16T15:35:06.875Z,95013.50
2023-03-16T15:38:19.128Z,95021.56
2023-03-16T15:41:35.251Z,95025.09
2023-03-16T15:44:58.191Z,95021.44
2023-03-16T15:48:07.280Z,95015.38
2023-03-16T15:51:24.426Z,95008.91
2023-03-16T15:54:35.059Z,95008.91
2023-03-16T15:57:45.147Z,95003.69
2023-03-16T16:00:57.104Z,94995.75
2023-03-16T16:04:15.427Z,94994.28
2023-03-16T16:07:23.669Z,94984.41
2023-03-16T16:10:32.263Z,94980.53
2023-03-16T16:13:45.026Z,94982.66
2023-03-16T16:16:54.869Z,94980.72
2023-03-16T16:20:03.247Z,94974.72
2023-03-16T16:23:11.383Z,94971.63
2023-03-16T16:26:46.938Z,94961.75
2023-03-16T16:29:57.943Z,94975.72
2023-03-16T16:33:26.622Z,94973.25
2023-03-16T16:36:35.489Z,94971.63
2023-03-16T16:39:44.142Z,94978.22
2023-03-16T16:42:54.936Z,94987.59
2023-03-16T16:46:14.006Z,94990.25
2023-03-16T16:49:28.582Z,94998.66
2023-03-16T16:52:37.283Z,94993.78
2023-03-16T16:55:46.018Z,94993.50
2023-03-16T16:58:54.443Z,94997.03
2023-03-16T17:02:24.425Z,95005.47
2023-03-16T17:05:32.927Z,95000.94
2023-03-16T17:08:41.542Z,94999.41
2023-03-16T17:11:50.929Z,95002.44
2023-03-16T17:14:59.265Z,94997.06
2023-03-16T17:18:15.022Z,95010.72
2023-03-16T17:21:26.175Z,95011.28
2023-03-16T17:24:34.603Z,95006.94
2023-03-16T17:27:46.812Z,95007.34
2023-03-16T17:30:55.927Z,95015.63
2023-03-16T17:34:19.140Z,95015.34
2023-03-16T17:37:28.753Z,95010.09
2023-03-16T17:40:37.538Z,95018.66
2023-03-16T17:43:47.903Z,95021.66
2023-03-16T17:46:56.514Z,95023.66
2023-03-16T17:50:17.945Z,95018.03
2023-03-16T17:53:26.518Z,95011.31
2023-03-16T17:56:37.151Z,95013.13
2023-03-16T17:59:47.346Z,95007.84
2023-03-16T18:03:00.862Z,95008.00
2023-03-16T18:06:18.092Z,95007.50
2023-03-16T18:09:28.666Z,95009.47
2023-03-16T18:12:37.166Z,95004.81
2023-03-16T18:15:47.732Z,95006.13
2023-03-16T18:19:01.040Z,95009.41
2023-03-16T18:22:19.425Z,95013.03
2023-03-16T18:25:39.536Z,95012.63
2023-03-16T18:28:48.422Z,95007.66
2023-03-16T18:31:59.367Z,95006.13
2023-03-16T18:35:16.821Z,95009.41
2023-03-16T18:38:31.475Z,95012.28
2023-03-16T18:41:39.748Z,95017.53
2023-03-16T18:44:48.810Z,95020.63
2023-03-16T18:47:58.011Z,95006.13
2023-03-16T18:51:06.815Z,94999.19
2023-03-16T18:54:23.452Z,95005.03
2023-03-16T18:57:33.288Z,94999.00
2023-03-16T19:00:42.098Z,94993.06
2023-03-16T19:03:51.884Z,94984.69
2023-03-16T19:07:00.392Z,94985.66
2023-03-16T19:10:24.238Z,94989.59
2023-03-16T19:13:32.646Z,94990.19
2023-03-16T19:16:40.971Z,94990.00
2023-03-16T19:19:49.331Z,94989.34
2023-03-16T19:23:04.657Z,94989.16
2023-03-16T19:26:15.257Z,94993.69
2023-03-16T19:29:30.376Z,94983.84
2023-03-16T19:32:38.711Z,94987.44
2023-03-16T19:35:51.903Z,94988.44
2023-03-16T19:39:01.374Z,94997.44
2023-03-16T19:42:22.329Z,95002.47
2023-03-16T19:45:34.321Z,94996.38
2023-03-16T19:48:43.476Z,94989.94
2023-03-16T19:51:54.696Z,94986.97
2023-03-16T19:55:03.297Z,94986.97
2023-03-16T19:58:29.370Z,94977.75
2023-03-16T20:01:37.890Z,94979.34
2023-03-16T20:04:46.522Z,94985.34
2023-03-16T20:07:55.864Z,94994.09
2023-03-16T20:11:08.690Z,94990.41
2023-03-16T20:14:24.644Z,94985.31
2023-03-16T20:17:32.940Z,94990.38
2023-03-16T20:20:41.988Z,94976.72
2023-03-16T20:23:50.314Z,94975.16
2023-03-16T20:26:58.505Z,94967.66
2023-03-16T20:30:17.679Z,94968.25
2023-03-16T20:33:28.871Z,94968.78
2023-03-16T20:36:37.137Z,94978.69
2023-03-16T20:39:45.470Z,94969.66
2023-03-16T20:42:54.688Z,94967.91
2023-03-16T20:46:04.779Z,94968.31
2023-03-16T20:49:34.191Z,94965.81
2023-03-16T20:52:42.443Z,94970.38
2023-03-16T20:55:53.173Z,94957.09
2023-03-16T20:59:01.629Z,94968.44
2023-03-16T21:02:28.159Z,94964.28
2023-03-16T21:05:36.563Z,94973.94
2023-03-16T21:08:44.918Z,94962.84
2023-03-16T21:11:53.284Z,94961.78
2023-03-16T21:15:03.701Z,94951.06
2023-03-16T21:18:19.816Z,94952.50
2023-03-16T21:21:28.050Z,94943.63
2023-03-16T21:24:37.088Z,94947.44
2023-03-16T21:27:45.422Z,94944.25
2023-03-16T21:30:58.058Z,94949.50
2023-03-16T21:34:19.673Z,94941.22
2023-03-16T21:37:28.288Z,94939.56
2023-03-16T21:40:36.509Z,94941.16
2023-03-16T21:43:46.677Z,94941.09
2023-03-16T21:46:54.984Z,94929.91
2023-03-16T21:50:14.062Z,94936.06
2023-03-16T21:53:25.682Z,94933.88
2023-03-16T21:56:34.032Z,94934.03
2023-03-16T21:59:42.269Z,94933.13
2023-03-16T22:02:53.731Z,94930.22
2023-03-16T22:06:03.436Z,94929.66
2023-03-16T22:09:30.213Z,94925.84
2023-03-16T22:12:38.601Z,94927.88
2023-03-16T22:15:49.408Z,94914.59
2023-03-16T22:18:58.979Z,94924.72
2023-03-16T22:22:16.000Z,94916.63
2023-03-16T22:25:26.625Z,94922.47
2023-03-16T22:28:35.916Z,94927.34
2023-03-16T22:31:44.045Z,94909.50
2023-03-16T22:34:56.886Z,94918.94
2023-03-16T22:38:12.327Z,94916.44
2023-03-16T22:41:20.685Z,94920.38
2023-03-16T22:44:28.997Z,94919.91
2023-03-16T22:47:38.653Z,94930.50
2023-03-16T22:50:48.196Z,94928.59
2023-03-16T22:54:02.395Z,94923.78
2023-03-16T22:57:15.270Z,94913.88
2023-03-16T23:00:28.624Z,94920.78
2023-03-16T23:03:37.754Z,94912.50
2023-03-16T23:06:53.367Z,94910.56
2023-03-16T23:10:02.876Z,94911.16
2023-03-16T23:13:17.890Z,94909.06
2023-03-16T23:16:29.200Z,94901.94
2023-03-16T23:19:37.468Z,94906.00
2023-03-16T23:22:45.618Z,94903.06
2023-03-16T23:25:55.180Z,94900.59
2023-03-16T23:29:03.297Z,94905.00
2023-03-16T23:32:12.786Z,94904.66
2023-03-16T23:35:25.432Z,94904.38
2023-03-16T23:38:33.899Z,94906.41
2023-03-16T23:41:48.009Z,94911.28
2023-03-16T23:45:08.364Z,94910.50
2023-03-16T23:48:20.416Z,94909.75
2023-03-16T23:51:31.448Z,94904.03
2023-03-16T23:54:39.646Z,94904.59
2023-03-16T23:57:49.574Z,94899.34
